Time;durP1;ratioP1;P1;durP2;ratioP2;P2;SDS_P1;SDS_P2;PMS_P1;PMS_P2;Temp;Humidity;BMP_temperature;BMP_pressure;BME280_temperature;BME280_humidity;BME280_pressure;Samples;Min_cycle;Max_cycle;Signal;HPM_P1;HPM_P2
2021/06/28 00:01:32;;;;;;;3.58;3.00;;;20.30;76.00;;;;;;5072256;28;20025;-93
2021/06/28 00:03:58;;;;;;;3.25;2.95;;;20.30;75.90;;;;;;5075263;28;20048;-94
2021/06/28 00:06:24;;;;;;;2.53;2.33;;;20.30;75.80;;;;;;5084772;28;20055;-94
2021/06/28 00:08:49;;;;;;;2.85;2.40;;;20.40;75.70;;;;;;5073572;28;20009;-94
2021/06/28 00:11:15;;;;;;;2.63;2.38;;;20.30;75.50;;;;;;5073556;28;20078;-95
2021/06/28 00:13:43;;;;;;;2.40;2.20;;;20.40;75.50;;;;;;5072854;28;20013;-93
2021/06/28 00:16:10;;;;;;;2.80;2.10;;;20.40;75.20;;;;;;5073110;28;20658;-93
2021/06/28 00:18:36;;;;;;;2.17;1.90;;;20.40;75.10;;;;;;5071999;28;20352;-92
2021/06/28 00:21:03;;;;;;;2.35;2.05;;;20.50;75.00;;;;;;5076690;28;20020;-92
2021/06/28 00:23:29;;;;;;;3.15;2.78;;;20.50;74.90;;;;;;5078531;28;20086;-91
2021/06/28 00:25:54;;;;;;;2.40;2.20;;;20.50;74.90;;;;;;5073235;28;20036;-92
2021/06/28 00:28:21;;;;;;;2.53;2.33;;;20.50;74.90;;;;;;5073220;28;20025;-92
2021/06/28 00:30:48;;;;;;;3.40;2.72;;;20.50;74.80;;;;;;5072126;28;20544;-90
2021/06/28 00:33:17;;;;;;;3.17;2.88;;;20.50;75.00;;;;;;5071029;28;20133;-90
2021/06/28 00:35:44;;;;;;;4.32;3.00;;;20.40;75.20;;;;;;5075230;28;20121;-92
2021/06/28 00:38:10;;;;;;;3.03;2.72;;;20.40;75.30;;;;;;5078628;28;20021;-91
2021/06/28 00:40:37;;;;;;;2.63;2.42;;;20.40;75.40;;;;;;5086438;28;20112;-90
2021/06/28 00:43:03;;;;;;;3.55;3.25;;;20.30;75.20;;;;;;5072893;28;20035;-89
2021/06/28 00:45:32;;;;;;;3.10;2.80;;;20.30;75.30;;;;;;5072945;28;20021;-91
2021/06/28 00:48:06;;;;;;;3.45;2.80;;;20.30;75.40;;;;;;5071110;28;20028;-89
2021/06/28 00:50:34;;;;;;;3.25;2.95;;;20.20;75.60;;;;;;5086108;28;20039;-93
2021/06/28 00:53:06;;;;;;;3.55;3.17;;;20.30;75.70;;;;;;5072100;28;20044;-92
2021/06/28 00:55:32;;;;;;;3.35;2.75;;;20.20;75.80;;;;;;5072908;28;20036;-91
2021/06/28 00:57:58;;;;;;;2.50;2.30;;;20.30;75.70;;;;;;5085327;28;20020;-91
2021/06/28 01:00:24;;;;;;;3.50;2.95;;;20.20;75.60;;;;;;5079969;28;20079;-91
2021/06/28 01:02:51;;;;;;;3.25;2.83;;;20.20;75.70;;;;;;5076997;28;20796;-91
2021/06/28 01:05:23;;;;;;;3.83;3.10;;;20.20;75.60;;;;;;5072302;28;20494;-90
2021/06/28 01:07:49;;;;;;;4.68;3.38;;;20.20;75.70;;;;;;5072588;28;20024;-89
2021/06/28 01:10:16;;;;;;;3.33;3.03;;;20.20;75.90;;;;;;5070426;28;20490;-87
2021/06/28 01:12:42;;;;;;;3.80;3.50;;;20.20;75.90;;;;;;5071246;28;20478;-90
2021/06/28 01:15:09;;;;;;;3.45;2.85;;;20.10;76.00;;;;;;5078400;28;20020;-90
2021/06/28 01:17:36;;;;;;;4.03;2.70;;;20.10;76.00;;;;;;5077056;28;20111;-91
2021/06/28 01:20:07;;;;;;;5.25;3.40;;;20.10;75.80;;;;;;5070558;28;20047;-90
2021/06/28 01:22:34;;;;;;;3.00;2.70;;;20.10;76.00;;;;;;5082167;28;20439;-91
2021/06/28 01:25:00;;;;;;;3.85;3.40;;;20.10;75.80;;;;;;5106664;28;20016;-91
2021/06/28 01:27:28;;;;;;;3.15;2.85;;;20.10;76.60;;;;;;5070674;28;20028;-90
2021/06/28 01:29:54;;;;;;;3.50;2.95;;;20.10;76.00;;;;;;5072366;28;20012;-90
2021/06/28 01:32:21;;;;;;;3.50;3.20;;;20.10;76.00;;;;;;5072051;28;20021;-90
2021/06/28 01:34:47;;;;;;;3.35;2.65;;;20.10;76.00;;;;;;5072292;28;20031;-90
2021/06/28 01:37:23;;;;;;;3.85;3.10;;;20.00;76.00;;;;;;5104306;28;20032;-90
2021/06/28 01:39:53;;;;;;;3.28;2.97;;;20.10;76.00;;;;;;5059857;28;20103;-91
2021/06/28 01:42:18;;;;;;;4.25;3.35;;;20.10;75.80;;;;;;5071502;28;20024;-90
2021/06/28 01:44:44;;;;;;;3.50;3.20;;;20.10;75.90;;;;;;5071615;28;20108;-91
2021/06/28 01:47:10;;;;;;;3.97;3.53;;;20.00;76.00;;;;;;5114583;27;20035;-91
2021/06/28 01:49:35;;;;;;;3.40;3.00;;;20.00;76.20;;;;;;5076050;28;20020;-92
2021/06/28 01:52:01;;;;;;;2.88;2.63;;;20.00;76.00;;;;;;5075123;28;20395;-91
2021/06/28 01:54:29;;;;;;;3.45;3.15;;;20.10;76.00;;;;;;5076316;28;20112;-92
2021/06/28 01:56:54;;;;;;;3.25;2.88;;;20.00;75.90;;;;;;5077816;28;20021;-92
2021/06/28 01:59:29;;;;;;;3.05;2.70;;;20.00;76.00;;;;;;5113157;27;20069;-90
2021/06/28 02:01:54;;;;;;;4.72;3.58;;;20.00;75.90;;;;;;5088143;28;20028;-89
2021/06/28 02:04:20;;;;;;;3.83;3.30;;;20.00;75.90;;;;;;5078580;28;20032;-90
2021/06/28 02:06:46;;;;;;;3.60;3.30;;;19.90;76.10;;;;;;5075813;28;20479;-91
2021/06/28 02:09:11;;;;;;;5.30;3.40;;;19.90;76.10;;;;;;5108443;28;20033;-90
2021/06/28 02:11:37;;;;;;;3.47;3.17;;;19.90;76.30;;;;;;5075621;28;20112;-92
2021/06/28 02:14:02;;;;;;;4.75;3.85;;;19.90;76.30;;;;;;5108531;28;20048;-92
2021/06/28 02:16:28;;;;;;;6.10;4.55;;;19.90;76.30;;;;;;5074604;28;20054;-92
2021/06/28 02:18:54;;;;;;;3.20;2.90;;;19.80;76.70;;;;;;5075845;28;20024;-92
2021/06/28 02:21:19;;;;;;;3.10;2.80;;;19.80;76.80;;;;;;5086352;28;20032;-92
2021/06/28 02:23:45;;;;;;;3.38;3.05;;;19.80;76.70;;;;;;5094983;28;20102;-91
2021/06/28 02:26:13;;;;;;;3.45;2.90;;;19.70;76.70;;;;;;5082851;28;20056;-93
2021/06/28 02:28:45;;;;;;;3.35;2.40;;;19.70;76.70;;;;;;5074572;28;20111;-91
2021/06/28 02:31:13;;;;;;;3.50;3.10;;;19.70;77.30;;;;;;5075118;28;20040;-91
2021/06/28 02:33:40;;;;;;;2.70;2.50;;;19.70;76.70;;;;;;5088333;28;20111;-90
2021/06/28 02:36:06;;;;;;;3.10;2.80;;;19.70;76.70;;;;;;5075301;28;20152;-89
2021/06/28 02:38:32;;;;;;;2.60;2.40;;;19.70;76.50;;;;;;5073911;28;20056;-90
2021/06/28 02:40:58;;;;;;;2.70;2.50;;;19.70;76.40;;;;;;5081502;28;20513;-92
2021/06/28 02:43:24;;;;;;;2.60;2.40;;;19.70;76.20;;;;;;5082449;28;20036;-91
2021/06/28 02:45:49;;;;;;;4.13;3.45;;;19.70;76.10;;;;;;5082136;28;20040;-90
2021/06/28 02:48:15;;;;;;;3.58;3.28;;;19.70;76.10;;;;;;5083127;28;20020;-92
2021/06/28 02:50:41;;;;;;;3.50;3.20;;;19.70;76.30;;;;;;5108884;27;20029;-91
2021/06/28 02:53:08;;;;;;;2.80;2.60;;;19.60;76.30;;;;;;5073855;28;20024;-93
2021/06/28 02:55:33;;;;;;;3.50;3.20;;;19.60;76.30;;;;;;5075330;28;20096;-93
2021/06/28 02:57:59;;;;;;;4.47;3.20;;;19.60;76.30;;;;;;5073418;28;20482;-90
2021/06/28 03:00:25;;;;;;;2.45;2.25;;;19.60;76.40;;;;;;5083420;28;20031;-92
2021/06/28 03:02:52;;;;;;;3.10;2.80;;;19.60;76.20;;;;;;5077662;28;20020;-92
2021/06/28 03:05:18;;;;;;;2.90;2.58;;;19.60;76.30;;;;;;5073752;28;20035;-92
2021/06/28 03:07:43;;;;;;;3.90;3.35;;;19.60;76.30;;;;;;5081193;28;20029;-92
2021/06/28 03:10:12;;;;;;;4.07;3.13;;;19.60;76.20;;;;;;5074270;28;20506;-92
2021/06/28 03:12:38;;;;;;;2.88;2.67;;;19.60;76.30;;;;;;5075906;28;20036;-91
2021/06/28 03:15:15;;;;;;;2.95;2.70;;;19.60;76.30;;;;;;5084671;28;20103;-90
2021/06/28 03:17:41;;;;;;;3.85;3.55;;;19.60;76.20;;;;;;5073392;28;20029;-90
2021/06/28 03:20:09;;;;;;;4.47;3.78;;;19.60;76.40;;;;;;5080295;28;20027;-91
2021/06/28 03:22:38;;;;;;;4.68;4.03;;;19.60;76.50;;;;;;5080207;28;20016;-91
2021/06/28 03:25:08;;;;;;;3.70;3.40;;;19.60;77.30;;;;;;5072834;28;20020;-90
2021/06/28 03:27:34;;;;;;;3.10;2.80;;;19.60;76.70;;;;;;5090645;28;20036;-90
2021/06/28 03:30:00;;;;;;;3.25;2.95;;;19.60;76.70;;;;;;5111301;27;20016;-91
2021/06/28 03:32:25;;;;;;;2.95;2.65;;;19.60;76.60;;;;;;5072559;28;20037;-91
2021/06/28 03:34:51;;;;;;;3.95;3.45;;;19.60;76.40;;;;;;5082286;28;20145;-92
2021/06/28 03:37:17;;;;;;;4.22;3.60;;;19.60;76.40;;;;;;5092765;28;20039;-93
2021/06/28 03:39:42;;;;;;;5.63;4.57;;;19.60;76.60;;;;;;5083516;28;20032;-93
2021/06/28 03:42:11;;;;;;;5.65;4.97;;;19.60;76.90;;;;;;5076700;28;20385;-92
2021/06/28 03:44:37;;;;;;;4.90;4.13;;;19.50;77.10;;;;;;5106783;28;20027;-92
2021/06/28 03:47:02;;;;;;;4.72;3.50;;;19.50;77.40;;;;;;5073543;28;20423;-89
2021/06/28 03:49:28;;;;;;;4.32;3.92;;;19.50;77.50;;;;;;5073049;28;20016;-90
2021/06/28 03:51:54;;;;;;;5.43;4.93;;;19.40;77.50;;;;;;5085657;28;20033;-89
2021/06/28 03:54:20;;;;;;;4.63;4.00;;;19.40;77.60;;;;;;5075467;28;20047;-90
2021/06/28 03:56:46;;;;;;;4.05;3.60;;;19.40;77.60;;;;;;5083326;28;20059;-90
2021/06/28 03:59:11;;;;;;;3.55;3.15;;;19.40;77.60;;;;;;5073039;28;20024;-90
2021/06/28 04:01:37;;;;;;;4.60;3.88;;;19.40;77.50;;;;;;5085516;28;20035;-88
2021/06/28 04:04:02;;;;;;;4.25;3.85;;;19.50;77.60;;;;;;5091909;28;20035;-90
2021/06/28 04:06:28;;;;;;;3.80;3.40;;;19.50;77.60;;;;;;5080071;28;20039;-90
2021/06/28 04:08:53;;;;;;;4.82;4.32;;;19.50;77.50;;;;;;5077753;28;20027;-91
2021/06/28 04:11:19;;;;;;;4.90;4.30;;;19.50;77.50;;;;;;5072238;28;20029;-91
2021/06/28 04:13:45;;;;;;;4.82;4.32;;;19.50;77.60;;;;;;5072626;28;20023;-91
2021/06/28 04:16:12;;;;;;;4.93;4.43;;;19.50;77.70;;;;;;5085029;28;20028;-90
2021/06/28 04:18:38;;;;;;;4.75;4.28;;;19.50;77.80;;;;;;5060198;28;20042;-92
2021/06/28 04:21:05;;;;;;;6.20;4.70;;;19.40;78.00;;;;;;5072868;28;20021;-91
2021/06/28 04:23:30;;;;;;;4.10;3.38;;;19.40;78.10;;;;;;5072886;28;20043;-91
2021/06/28 04:25:56;;;;;;;4.18;3.78;;;19.50;77.90;;;;;;5072009;28;20433;-90
2021/06/28 04:28:22;;;;;;;3.90;3.40;;;19.50;77.90;;;;;;5074291;28;20027;-87
2021/06/28 04:30:48;;;;;;;3.20;2.90;;;19.60;77.60;;;;;;5072565;28;20024;-92
2021/06/28 04:33:13;;;;;;;2.65;2.45;;;19.70;77.30;;;;;;5071796;28;20380;-92
2021/06/28 04:35:39;;;;;;;4.00;3.33;;;19.70;77.10;;;;;;5073159;28;20024;-92
2021/06/28 04:38:05;;;;;;;4.60;4.20;;;19.70;77.10;;;;;;5073261;28;20028;-91
2021/06/28 04:40:31;;;;;;;4.20;3.67;;;19.70;77.30;;;;;;5083559;28;20017;-90
2021/06/28 04:42:58;;;;;;;4.00;3.50;;;19.60;77.30;;;;;;5072599;28;20505;-91
2021/06/28 04:45:27;;;;;;;3.10;2.80;;;19.70;77.20;;;;;;5072080;28;20020;-92
2021/06/28 04:47:53;;;;;;;4.00;3.60;;;19.80;77.00;;;;;;5072812;28;20025;-93
2021/06/28 04:50:23;;;;;;;4.07;3.67;;;19.90;76.80;;;;;;5092461;28;20024;-92
2021/06/28 04:52:53;;;;;;;4.18;3.75;;;20.00;76.70;;;;;;5087749;28;20044;-94
2021/06/28 04:55:19;;;;;;;4.43;3.92;;;20.20;76.40;;;;;;5085269;28;20107;-93
2021/06/28 04:57:45;;;;;;;4.13;3.72;;;20.70;75.30;;;;;;5085870;28;20088;-93
2021/06/28 05:00:17;;;;;;;5.95;4.60;;;21.20;74.00;;;;;;5083495;28;20103;-93
2021/06/28 05:02:44;;;;;;;5.88;4.20;;;21.60;72.90;;;;;;5066869;28;20092;-96
2021/06/28 05:05:10;;;;;;;4.93;4.43;;;22.00;71.90;;;;;;5075524;28;20025;-95
2021/06/28 05:07:36;;;;;;;5.03;4.43;;;22.40;71.00;;;;;;5076147;28;20040;-95
2021/06/28 05:10:02;;;;;;;7.22;5.40;;;22.60;70.30;;;;;;5120634;27;20073;-94
2021/06/28 05:12:27;;;;;;;6.30;5.70;;;22.70;70.10;;;;;;5124278;27;20430;-95
2021/06/28 05:14:53;;;;;;;4.88;4.30;;;22.90;69.80;;;;;;5077081;28;20013;-95
2021/06/28 05:17:18;;;;;;;5.75;5.07;;;22.90;69.80;;;;;;5107246;27;20416;-95
2021/06/28 05:19:44;;;;;;;7.25;6.47;;;23.10;69.60;;;;;;5085782;28;20020;-96
2021/06/28 05:22:10;;;;;;;6.82;6.13;;;23.10;69.40;;;;;;5072688;28;20019;-94
2021/06/28 05:24:35;;;;;;;7.65;6.85;;;23.20;69.40;;;;;;5071075;28;20033;-94
2021/06/28 05:27:02;;;;;;;6.20;5.60;;;23.30;69.50;;;;;;5071230;28;20033;-95
2021/06/28 05:29:28;;;;;;;4.82;4.25;;;23.60;68.90;;;;;;5073078;28;20098;-95
2021/06/28 05:31:53;;;;;;;5.78;5.18;;;23.90;68.40;;;;;;5072731;28;20013;-94
2021/06/28 05:34:20;;;;;;;6.82;5.68;;;23.70;68.20;;;;;;5072521;28;20418;-95
2021/06/28 05:36:45;;;;;;;5.53;4.43;;;23.60;68.60;;;;;;5071173;28;20029;-94
2021/06/28 05:39:11;;;;;;;4.72;4.15;;;23.30;69.20;;;;;;5071233;28;20017;-93
2021/06/28 05:41:37;;;;;;;4.95;4.45;;;23.40;69.70;;;;;;5084523;28;20036;-92
2021/06/28 05:44:03;;;;;;;5.03;4.53;;;23.60;69.40;;;;;;5067526;28;20591;-92
2021/06/28 05:46:28;;;;;;;5.15;4.60;;;23.80;69.20;;;;;;5052964;28;20028;-90
2021/06/28 05:48:54;;;;;;;4.10;3.70;;;23.80;69.10;;;;;;5070743;28;20028;-91
2021/06/28 05:51:20;;;;;;;6.15;5.38;;;23.90;69.00;;;;;;5071088;28;20028;-90
2021/06/28 05:53:46;;;;;;;4.55;4.05;;;23.90;68.90;;;;;;5085371;28;20016;-91
2021/06/28 05:56:13;;;;;;;5.07;4.57;;;23.80;69.00;;;;;;5107562;28;20101;-91
2021/06/28 05:58:38;;;;;;;4.15;3.75;;;23.80;69.10;;;;;;5070392;28;20044;-89
2021/06/28 06:01:15;;;;;;;7.28;4.72;;;23.90;69.20;;;;;;5076750;28;20012;-90
2021/06/28 06:03:42;;;;;;;4.95;4.45;;;23.80;69.10;;;;;;5105943;28;20025;-93
2021/06/28 06:06:07;;;;;;;5.18;4.40;;;23.70;69.10;;;;;;5073011;28;20024;-90
2021/06/28 06:08:35;;;;;;;6.03;4.78;;;23.60;69.30;;;;;;5072205;28;20070;-90
2021/06/28 06:11:02;;;;;;;6.65;5.40;;;23.30;69.60;;;;;;5070597;28;20163;-96
2021/06/28 06:13:28;;;;;;;5.85;5.25;;;23.30;69.70;;;;;;5103388;28;20028;-89
2021/06/28 06:15:54;;;;;;;6.20;4.63;;;23.20;69.60;;;;;;5075129;28;20107;-91
2021/06/28 06:18:21;;;;;;;6.78;5.10;;;23.30;69.60;;;;;;5072206;28;20020;-92
2021/06/28 06:20:47;;;;;;;5.97;4.78;;;23.30;69.50;;;;;;5074345;28;20056;-93
2021/06/28 06:23:14;;;;;;;4.75;4.20;;;23.30;69.40;;;;;;5067639;28;20051;-93
2021/06/28 06:25:41;;;;;;;3.90;3.47;;;23.50;69.50;;;;;;5072039;28;20070;-93
2021/06/28 06:28:06;;;;;;;4.38;3.97;;;23.70;69.20;;;;;;5071281;28;20058;-92
2021/06/28 06:30:33;;;;;;;4.82;4.40;;;23.90;68.70;;;;;;5067787;28;20029;-96
2021/06/28 06:32:59;;;;;;;5.20;4.70;;;24.00;68.30;;;;;;5067463;28;20025;-90
2021/06/28 06:35:25;;;;;;;5.95;5.35;;;24.00;67.90;;;;;;5077682;28;20080;-95
2021/06/28 06:37:59;;;;;;;4.22;3.80;;;24.00;67.30;;;;;;5078463;28;20047;-91
2021/06/28 06:40:26;;;;;;;5.47;4.60;;;24.00;67.70;;;;;;5078787;28;20031;-93
2021/06/28 06:42:56;;;;;;;4.93;4.18;;;24.00;67.60;;;;;;5075722;28;20119;-92
2021/06/28 06:45:23;;;;;;;6.05;4.93;;;24.10;67.30;;;;;;5075532;28;20009;-91
2021/06/28 06:47:50;;;;;;;6.07;5.18;;;24.20;66.90;;;;;;5076385;28;20028;-88
2021/06/28 06:50:17;;;;;;;6.75;5.10;;;24.30;66.80;;;;;;5074723;28;20036;-90
2021/06/28 06:52:44;;;;;;;4.57;3.97;;;24.30;66.20;;;;;;5078434;28;20032;-88
2021/06/28 06:55:10;;;;;;;6.03;5.43;;;24.40;66.30;;;;;;5100198;27;20029;-90
2021/06/28 06:57:36;;;;;;;5.60;4.82;;;24.50;66.10;;;;;;5077887;28;20033;-88
2021/06/28 07:00:05;;;;;;;6.07;5.40;;;24.60;66.00;;;;;;5071199;28;20024;-90
2021/06/28 07:02:31;;;;;;;5.90;4.75;;;24.50;65.80;;;;;;5053940;28;20064;-90
2021/06/28 07:04:57;;;;;;;5.50;4.45;;;24.60;65.70;;;;;;5057121;28;20093;-89
2021/06/28 07:07:23;;;;;;;5.80;5.20;;;24.60;65.60;;;;;;5074992;28;20028;-89
2021/06/28 07:09:49;;;;;;;5.15;4.65;;;24.60;65.40;;;;;;5074598;28;20425;-91
2021/06/28 07:12:15;;;;;;;7.32;5.63;;;24.70;65.70;;;;;;5073795;28;20021;-93
2021/06/28 07:14:40;;;;;;;4.05;3.65;;;24.70;65.40;;;;;;5073949;28;20099;-95
2021/06/28 07:17:06;;;;;;;6.32;5.15;;;24.90;65.50;;;;;;5075321;28;20052;-92
2021/06/28 07:19:31;;;;;;;6.28;5.40;;;24.80;64.80;;;;;;5077632;28;20020;-93
2021/06/28 07:21:57;;;;;;;5.45;4.85;;;24.90;64.80;;;;;;5079913;28;20024;-93
2021/06/28 07:24:23;;;;;;;4.65;4.07;;;24.90;64.70;;;;;;5065946;28;20051;-91
2021/06/28 07:26:52;;;;;;;5.32;4.80;;;25.10;64.70;;;;;;5070876;28;20058;-91
2021/06/28 07:29:18;;;;;;;5.35;4.35;;;25.10;64.50;;;;;;5079551;28;20023;-90
2021/06/28 07:31:44;;;;;;;5.78;5.18;;;25.30;64.80;;;;;;5087999;28;20119;-90
2021/06/28 07:34:10;;;;;;;6.07;5.38;;;25.40;64.60;;;;;;5076381;28;20132;-93
2021/06/28 07:36:35;;;;;;;7.90;5.00;;;25.50;63.70;;;;;;5077700;28;20025;-91
2021/06/28 07:39:04;;;;;;;5.30;4.80;;;25.50;64.40;;;;;;5073577;28;20024;-91
2021/06/28 07:41:32;;;;;;;5.50;4.90;;;25.50;63.40;;;;;;5063157;28;20029;-92
2021/06/28 07:44:05;;;;;;;6.40;5.80;;;25.60;63.40;;;;;;5072954;28;20074;-91
2021/06/28 07:46:31;;;;;;;5.63;4.93;;;25.50;63.00;;;;;;5072752;28;20032;-94
2021/06/28 07:48:56;;;;;;;6.10;5.10;;;25.60;63.50;;;;;;5083391;28;20019;-91
2021/06/28 07:51:22;;;;;;;5.65;5.05;;;25.70;63.20;;;;;;5108227;27;20032;-91
2021/06/28 07:53:49;;;;;;;4.97;4.47;;;25.90;63.20;;;;;;5075883;28;20025;-90
2021/06/28 07:56:14;;;;;;;4.10;3.70;;;25.80;62.80;;;;;;5073294;28;20036;-92
2021/06/28 07:58:44;;;;;;;7.05;5.93;;;25.80;63.10;;;;;;5073156;28;20013;-91
2021/06/28 08:01:11;;;;;;;7.05;6.35;;;25.90;62.90;;;;;;5069661;28;20028;-92
2021/06/28 08:03:44;;;;;;;5.97;4.65;;;25.90;62.40;;;;;;5069501;28;20032;-92
2021/06/28 08:06:15;;;;;;;3.97;3.58;;;26.00;62.50;;;;;;5076696;28;20501;-91
2021/06/28 08:08:42;;;;;;;6.28;5.05;;;26.20;62.50;;;;;;5073154;28;20028;-92
2021/06/28 08:11:09;;;;;;;6.05;4.97;;;26.30;62.10;;;;;;5071047;28;20020;-92
2021/06/28 08:13:36;;;;;;;7.07;5.20;;;26.40;61.80;;;;;;5071074;28;20016;-91
2021/06/28 08:16:02;;;;;;;6.00;5.40;;;26.50;61.80;;;;;;5072286;28;20024;-89
2021/06/28 08:18:28;;;;;;;6.47;5.75;;;26.60;61.60;;;;;;5073930;28;20023;-89
2021/06/28 08:20:54;;;;;;;4.95;4.45;;;26.60;61.40;;;;;;5077462;28;20082;-91
2021/06/28 08:23:20;;;;;;;6.65;5.43;;;26.70;61.30;;;;;;5067813;28;20028;-91
2021/06/28 08:25:45;;;;;;;7.93;6.28;;;26.80;61.30;;;;;;5078617;28;20024;-89
2021/06/28 08:28:12;;;;;;;8.40;7.60;;;26.80;61.10;;;;;;5102942;27;20040;-91
2021/06/28 08:30:38;;;;;;;5.70;4.93;;;26.80;60.00;;;;;;5071722;28;20395;-95
2021/06/28 08:33:05;;;;;;;5.15;4.65;;;26.60;60.40;;;;;;5072759;28;20102;-94
2021/06/28 08:35:30;;;;;;;6.57;5.78;;;26.60;60.70;;;;;;5078504;28;20031;-94
2021/06/28 08:37:56;;;;;;;6.35;5.65;;;26.60;60.60;;;;;;5082775;28;20123;-93
2021/06/28 08:40:22;;;;;;;6.43;5.25;;;26.70;60.40;;;;;;5074685;28;20024;-92
2021/06/28 08:42:48;;;;;;;6.00;5.40;;;26.90;60.30;;;;;;5100205;28;20027;-89
2021/06/28 08:45:14;;;;;;;5.20;4.70;;;26.90;60.20;;;;;;5066333;28;20024;-90
2021/06/28 08:47:43;;;;;;;5.70;4.35;;;27.00;60.20;;;;;;5071046;28;20029;-87
2021/06/28 08:50:10;;;;;;;7.22;5.63;;;27.20;60.20;;;;;;5069005;28;20040;-89
2021/06/28 08:52:42;;;;;;;6.47;5.88;;;27.50;59.70;;;;;;5068511;28;20074;-87
2021/06/28 08:55:10;;;;;;;6.30;5.25;;;27.40;59.10;;;;;;5072863;28;20025;-88
2021/06/28 08:57:36;;;;;;;6.72;5.50;;;27.40;58.80;;;;;;5071140;28;20025;-88
2021/06/28 09:00:10;;;;;;;4.97;4.47;;;27.30;58.80;;;;;;5068904;28;20028;-90
2021/06/28 09:02:39;;;;;;;5.63;4.00;;;27.30;59.10;;;;;;5062112;28;20029;-90
2021/06/28 09:05:07;;;;;;;5.70;4.97;;;27.50;59.20;;;;;;5075010;28;20090;-89
2021/06/28 09:07:34;;;;;;;5.20;4.38;;;27.70;58.90;;;;;;5067864;28;20068;-89
2021/06/28 09:10:00;;;;;;;5.47;4.38;;;27.90;58.70;;;;;;5065725;28;20012;-88
2021/06/28 09:12:25;;;;;;;4.60;4.10;;;28.10;58.30;;;;;;5069337;28;20494;-92
2021/06/28 09:14:58;;;;;;;4.45;4.05;;;28.30;58.30;;;;;;5081954;28;20020;-91
2021/06/28 09:17:34;;;;;;;4.55;3.55;;;28.40;57.70;;;;;;5068961;28;20040;-89
2021/06/28 09:20:29;;;;;;;4.47;3.97;;;28.40;57.60;;;;;;5067744;28;20020;-88
2021/06/28 09:22:55;;;;;;;5.65;4.20;;;28.30;57.20;;;;;;5061616;28;20037;-90
2021/06/28 09:25:35;;;;;;;3.97;3.53;;;28.30;57.10;;;;;;5062926;28;20494;-90
2021/06/28 09:28:03;;;;;;;5.28;4.53;;;28.20;57.30;;;;;;5070531;28;20100;-93
2021/06/28 09:30:29;;;;;;;5.78;4.57;;;28.20;57.10;;;;;;5072978;28;20020;-91
2021/06/28 09:32:57;;;;;;;5.32;4.53;;;28.30;57.50;;;;;;5069622;28;20035;-93
2021/06/28 09:35:33;;;;;;;6.25;5.28;;;28.50;57.50;;;;;;5068151;28;20024;-91
2021/06/28 09:38:03;;;;;;;5.18;4.32;;;28.20;56.40;;;;;;5080817;28;20115;-92
2021/06/28 09:40:29;;;;;;;5.43;4.78;;;28.20;56.90;;;;;;5067251;28;20016;-90
2021/06/28 09:42:55;;;;;;;6.63;5.47;;;28.30;56.70;;;;;;5066044;28;20031;-93
2021/06/28 09:45:21;;;;;;;5.85;4.85;;;28.20;55.90;;;;;;5063026;28;20076;-88
2021/06/28 09:47:50;;;;;;;5.00;4.50;;;28.00;55.80;;;;;;5093127;28;20090;-91
2021/06/28 09:50:23;;;;;;;3.92;3.53;;;27.80;56.20;;;;;;5069137;28;20024;-93
2021/06/28 09:52:59;;;;;;;4.47;4.07;;;27.80;56.60;;;;;;5069714;28;20035;-93
2021/06/28 09:55:39;;;;;;;4.80;4.30;;;27.80;56.80;;;;;;5063661;28;20066;-93
2021/06/28 09:58:10;;;;;;;5.00;4.05;;;27.70;57.10;;;;;;5087650;28;20045;-92
2021/06/28 10:00:48;;;;;;;3.80;3.43;;;27.60;57.10;;;;;;5069697;28;20029;-92
2021/06/28 10:03:34;;;;;;;4.80;4.40;;;27.50;57.50;;;;;;5065876;28;20314;-92
2021/06/28 10:08:43;;;;;;;4.07;3.65;;;27.20;57.60;;;;;;5072942;28;20062;-91
2021/06/28 10:11:30;;;;;;;5.57;4.80;;;27.20;57.90;;;;;;5074053;28;20067;-90
2021/06/28 10:14:03;;;;;;;5.80;5.20;;;27.10;58.50;;;;;;5073400;28;20033;-91
2021/06/28 10:16:31;;;;;;;4.03;3.63;;;27.20;58.60;;;;;;5077868;28;20071;-96
2021/06/28 10:18:58;;;;;;;5.32;4.82;;;27.20;58.50;;;;;;5076369;28;20020;-95
2021/06/28 10:21:25;;;;;;;5.60;5.00;;;27.20;58.40;;;;;;5077039;28;20079;-94
2021/06/28 10:23:51;;;;;;;5.18;4.68;;;27.10;58.70;;;;;;5084088;28;20028;-96
2021/06/28 10:26:17;;;;;;;4.10;3.70;;;26.90;58.90;;;;;;5088834;28;20024;-96
2021/06/28 10:28:45;;;;;;;6.18;4.97;;;26.90;59.30;;;;;;5112877;27;20027;-96
2021/06/28 10:31:13;;;;;;;5.07;4.10;;;27.00;59.00;;;;;;5080700;28;20032;-95
2021/06/28 10:33:41;;;;;;;5.63;4.32;;;27.10;59.00;;;;;;5075461;28;20032;-96
2021/06/28 10:36:14;;;;;;;4.00;3.58;;;27.20;58.60;;;;;;5087288;28;20066;-96
2021/06/28 10:38:58;;;;;;;5.47;4.18;;;27.30;58.60;;;;;;5071604;28;20075;-96
2021/06/28 10:41:43;;;;;;;4.82;4.10;;;27.40;58.20;;;;;;5098113;28;20026;-96
2021/06/28 10:44:19;;;;;;;4.47;4.07;;;27.60;58.30;;;;;;5254223;22;20064;-96
2021/06/28 10:46:49;;;;;;;5.68;4.95;;;27.60;58.20;;;;;;5089919;28;20044;-95
2021/06/28 10:49:15;;;;;;;6.72;4.47;;;27.50;58.20;;;;;;5072158;28;20491;-95
2021/06/28 10:51:50;;;;;;;5.93;4.40;;;27.60;58.30;;;;;;5074733;28;20035;-96
2021/06/28 10:54:49;;;;;;;5.28;3.75;;;27.70;58.20;;;;;;5079175;28;20035;-96
2021/06/28 10:57:37;;;;;;;4.13;3.53;;;27.70;58.20;;;;;;5077371;28;20041;-95
2021/06/28 11:00:05;;;;;;;4.35;3.95;;;27.60;58.20;;;;;;5087529;28;20048;-96
2021/06/28 11:02:40;;;;;;;6.15;4.60;;;27.50;58.40;;;;;;5075990;28;20127;-96
2021/06/28 11:05:10;;;;;;;4.82;4.25;;;27.50;58.50;;;;;;5072775;28;20043;-96
2021/06/28 11:07:47;;;;;;;5.80;5.18;;;27.40;58.60;;;;;;5073531;28;20036;-96
2021/06/28 11:10:37;;;;;;;5.70;4.70;;;27.30;58.60;;;;;;5079125;28;20032;-96
2021/06/28 11:16:40;;;;;;;6.70;5.00;;;27.10;59.40;;;;;;5079852;28;20066;-96
2021/06/28 11:19:54;;;;;;;5.47;4.40;;;27.00;59.40;;;;;;5031783;28;20029;-96
2021/06/28 11:22:41;;;;;;;6.10;5.32;;;26.90;59.50;;;;;;5088305;28;20039;-96
2021/06/28 11:25:19;;;;;;;5.13;3.45;;;26.70;59.70;;;;;;5093779;28;20475;-95
2021/06/28 11:27:59;;;;;;;5.03;4.53;;;26.80;59.90;;;;;;5090061;28;20039;-95
2021/06/28 11:30:29;;;;;;;5.00;4.47;;;26.80;59.90;;;;;;5084448;28;20088;-95
2021/06/28 11:33:14;;;;;;;7.03;6.32;;;26.80;60.10;;;;;;5087864;28;20024;-96
2021/06/28 11:35:50;;;;;;;4.70;4.07;;;26.70;60.00;;;;;;5099774;28;20060;-96
2021/06/28 11:38:20;;;;;;;4.30;3.90;;;26.60;60.30;;;;;;5083044;28;20056;-96
2021/06/28 11:41:09;;;;;;;4.22;3.80;;;26.70;60.60;;;;;;5070814;28;20028;-96
2021/06/28 11:43:43;;;;;;;4.35;3.95;;;26.70;60.60;;;;;;5063725;28;20644;-96
2021/06/28 11:46:46;;;;;;;6.03;5.13;;;26.70;60.60;;;;;;5087038;28;20119;-96
2021/06/28 11:49:35;;;;;;;5.00;4.25;;;26.80;60.60;;;;;;5075586;28;20048;-96
2021/06/28 11:52:01;;;;;;;6.55;5.78;;;26.70;60.60;;;;;;5068652;28;20031;-96
2021/06/28 11:55:21;;;;;;;5.45;4.95;;;26.70;60.60;;;;;;5074238;28;20029;-94
2021/06/28 11:57:53;;;;;;;4.90;4.40;;;26.60;60.90;;;;;;5087816;28;20031;-96
2021/06/28 12:00:25;;;;;;;4.93;3.95;;;26.40;61.10;;;;;;5073704;28;20020;-94
2021/06/28 12:03:12;;;;;;;4.20;3.80;;;26.50;61.40;;;;;;5080988;28;20024;-93
2021/06/28 12:05:38;;;;;;;5.03;4.53;;;26.50;61.40;;;;;;5071950;28;20037;-95
2021/06/28 12:08:05;;;;;;;4.82;4.25;;;26.50;61.50;;;;;;5082483;28;20431;-96
2021/06/28 12:10:31;;;;;;;4.70;4.20;;;26.60;61.50;;;;;;5065222;28;20036;-95
2021/06/28 12:12:57;;;;;;;4.60;3.97;;;26.60;61.60;;;;;;5078651;28;20052;-96
2021/06/28 12:15:24;;;;;;;4.60;4.20;;;26.70;61.60;;;;;;5084085;28;20119;-96
2021/06/28 12:17:53;;;;;;;4.28;3.83;;;26.80;61.70;;;;;;5082370;28;20088;-95
2021/06/28 12:20:20;;;;;;;4.28;3.28;;;26.80;61.80;;;;;;5078952;28;20024;-95
2021/06/28 12:22:51;;;;;;;4.38;3.55;;;26.70;61.90;;;;;;5071393;28;20067;-95
2021/06/28 12:25:21;;;;;;;4.90;4.40;;;26.80;62.20;;;;;;5067889;28;20037;-96
2021/06/28 12:27:51;;;;;;;4.75;3.45;;;26.70;62.30;;;;;;5071826;28;20193;-94
2021/06/28 12:30:20;;;;;;;5.32;4.82;;;26.60;62.30;;;;;;5069407;28;20487;-92
2021/06/28 12:32:52;;;;;;;5.80;4.28;;;26.60;62.20;;;;;;5070797;28;20024;-91
2021/06/28 12:35:22;;;;;;;3.97;3.58;;;26.60;62.20;;;;;;5068139;28;20111;-92
2021/06/28 12:37:53;;;;;;;3.78;3.47;;;26.70;62.30;;;;;;5072361;28;20092;-94
2021/06/28 12:40:38;;;;;;;4.32;3.92;;;26.70;62.30;;;;;;5071290;28;20479;-96
2021/06/28 12:43:07;;;;;;;4.32;3.55;;;26.70;62.30;;;;;;5059352;28;20025;-96
2021/06/28 12:45:45;;;;;;;5.18;3.90;;;26.70;62.30;;;;;;5079466;28;20039;-95
2021/06/28 12:48:19;;;;;;;4.05;3.60;;;26.60;62.40;;;;;;5079555;28;20032;-95
2021/06/28 12:50:52;;;;;;;3.63;3.30;;;26.70;62.50;;;;;;5065050;28;20078;-96
2021/06/28 12:53:21;;;;;;;4.22;3.83;;;26.60;62.50;;;;;;5069271;28;20754;-96
2021/06/28 12:56:01;;;;;;;4.30;3.90;;;26.60;62.60;;;;;;5067835;28;20029;-95
2021/06/28 12:58:43;;;;;;;4.78;4.35;;;26.60;62.70;;;;;;5063745;28;20091;-95
2021/06/28 13:01:09;;;;;;;4.80;3.75;;;26.60;62.90;;;;;;5062023;28;20016;-94
2021/06/28 13:03:34;;;;;;;4.35;3.95;;;26.60;63.00;;;;;;5064343;28;20486;-94